Time;durP1;ratioP1;P1;durP2;ratioP2;P2;SDS_P1;SDS_P2;PMS_P1;PMS_P2;Temp;Humidity;BMP_temperature;BMP_pressure;BME280_temperature;BME280_humidity;BME280_pressure;Samples;Min_cycle;Max_cycle;Signal;HPM_P1;HPM_P2
2023/07/18 00:00:32;;;;;;;9.53;9.07;;;20.30;90.90;;;;;;4918058;29;20504;-81
2023/07/18 00:03:01;;;;;;;9.90;9.40;;;20.20;99.30;;;;;;4919863;29;20459;-80
2023/07/18 00:05:30;;;;;;;9.77;9.20;;;20.10;90.80;;;;;;4913575;29;20471;-81
2023/07/18 00:07:58;;;;;;;9.20;8.90;;;20.10;90.90;;;;;;4920246;29;20548;-80
2023/07/18 00:10:26;;;;;;;9.57;9.10;;;20.00;90.70;;;;;;4917546;29;20552;-80
2023/07/18 00:12:54;;;;;;;10.73;10.33;;;20.00;90.90;;;;;;4918759;29;20501;-81
2023/07/18 00:15:24;;;;;;;10.53;10.13;;;19.90;91.60;;;;;;4923308;29;20962;-83
2023/07/18 00:17:52;;;;;;;10.73;10.33;;;19.90;92.40;;;;;;4921096;29;20481;-80
2023/07/18 00:20:23;;;;;;;10.63;10.23;;;19.90;92.60;;;;;;4922661;29;20464;-80
2023/07/18 00:22:51;;;;;;;11.23;10.73;;;20.00;94.00;;;;;;4922732;29;20462;-82
2023/07/18 00:25:21;;;;;;;10.47;9.97;;;20.00;94.40;;;;;;4923281;29;20469;-79
2023/07/18 00:27:51;;;;;;;10.43;9.83;;;19.90;94.50;;;;;;4924363;29;21033;-80
2023/07/18 00:30:23;;;;;;;10.80;10.40;;;19.90;95.40;;;;;;4921556;29;20516;-78
2023/07/18 00:32:52;;;;;;;10.83;10.30;;;19.80;96.60;;;;;;4921787;29;20473;-80
2023/07/18 00:35:20;;;;;;;10.63;10.10;;;19.80;96.70;;;;;;4919319;29;20557;-78
2023/07/18 00:37:48;;;;;;;11.13;10.73;;;19.90;97.40;;;;;;4918313;29;20492;-80
2023/07/18 00:40:16;;;;;;;10.77;10.43;;;19.80;99.90;;;;;;4920976;29;20449;-79
2023/07/18 00:42:47;;;;;;;10.83;10.40;;;19.70;99.00;;;;;;4921677;29;20463;-81
2023/07/18 00:45:15;;;;;;;10.93;10.43;;;19.70;99.90;;;;;;4919660;29;20995;-80
2023/07/18 00:47:46;;;;;;;11.07;10.67;;;19.60;99.90;;;;;;4914555;29;20473;-80
2023/07/18 00:50:16;;;;;;;11.30;10.90;;;19.60;99.90;;;;;;4920010;29;20813;-77
2023/07/18 00:52:48;;;;;;;10.67;10.27;;;19.60;99.90;;;;;;4917764;29;20500;-82
2023/07/18 00:55:16;;;;;;;10.67;10.27;;;19.50;99.90;;;;;;4916936;29;20470;-80
2023/07/18 00:57:47;;;;;;;11.33;10.93;;;19.50;99.90;;;;;;4913348;29;20484;-79
2023/07/18 01:00:17;;;;;;;11.00;10.60;;;19.50;99.90;;;;;;4916852;29;20478;-81
2023/07/18 01:02:47;;;;;;;10.70;10.30;;;19.40;99.90;;;;;;4912974;29;20453;-83
2023/07/18 01:05:17;;;;;;;10.60;10.20;;;19.40;99.90;;;;;;4918900;29;21037;-81
2023/07/18 01:07:47;;;;;;;10.47;10.00;;;19.40;99.90;;;;;;4916985;29;20481;-80
2023/07/18 01:10:17;;;;;;;11.23;10.83;;;19.40;99.90;;;;;;4919367;29;20485;-80
2023/07/18 01:12:45;;;;;;;10.87;10.40;;;19.40;99.90;;;;;;4916215;29;20507;-79
2023/07/18 01:15:13;;;;;;;10.60;10.30;;;19.40;99.90;;;;;;4918882;29;20464;-79
2023/07/18 01:17:45;;;;;;;11.00;10.60;;;19.40;99.90;;;;;;4913915;29;21333;-80
2023/07/18 01:20:18;;;;;;;11.93;11.40;;;19.30;99.90;;;;;;4920284;29;20468;-83
2023/07/18 01:22:50;;;;;;;10.83;10.53;;;19.30;99.90;;;;;;4921483;29;20462;-82
2023/07/18 01:25:19;;;;;;;10.90;10.40;;;19.20;99.90;;;;;;4919587;29;20473;-83
2023/07/18 01:27:49;;;;;;;11.53;10.20;;;19.20;99.90;;;;;;4923872;29;20488;-81
2023/07/18 01:30:19;;;;;;;10.47;10.17;;;19.20;99.90;;;;;;4918520;29;20480;-83
2023/07/18 01:32:48;;;;;;;11.20;10.80;;;19.20;99.90;;;;;;4916269;29;21115;-82
2023/07/18 01:35:19;;;;;;;11.23;10.83;;;19.20;99.90;;;;;;4924652;29;20457;-83
2023/07/18 01:37:49;;;;;;;11.43;11.03;;;19.10;99.90;;;;;;4922567;29;20523;-83
2023/07/18 01:40:20;;;;;;;11.70;11.10;;;19.10;99.90;;;;;;4923047;29;21571;-81
2023/07/18 01:42:51;;;;;;;11.30;10.90;;;19.00;99.90;;;;;;4921086;29;20929;-81
2023/07/18 01:45:20;;;;;;;11.07;10.67;;;19.00;99.90;;;;;;4919110;29;20501;-82
2023/07/18 01:47:49;;;;;;;11.10;10.50;;;19.00;99.90;;;;;;4916182;29;20541;-81
2023/07/18 01:50:19;;;;;;;11.07;10.67;;;19.00;99.90;;;;;;4921659;29;20457;-83
2023/07/18 01:52:49;;;;;;;10.80;10.50;;;19.00;99.90;;;;;;4921844;29;20488;-81
2023/07/18 01:55:17;;;;;;;11.17;10.80;;;19.00;99.90;;;;;;4916608;29;20516;-84
2023/07/18 01:57:47;;;;;;;11.20;10.70;;;19.00;99.90;;;;;;4922175;29;20481;-82
2023/07/18 02:00:19;;;;;;;11.10;10.60;;;18.90;99.90;;;;;;4919737;29;20468;-84
2023/07/18 02:02:49;;;;;;;11.77;11.10;;;18.90;99.90;;;;;;4922172;29;20928;-81
2023/07/18 02:05:19;;;;;;;11.80;11.30;;;19.00;99.90;;;;;;4920563;29;20695;-80
2023/07/18 02:07:49;;;;;;;10.90;10.60;;;18.90;99.90;;;;;;4916933;29;20485;-81
2023/07/18 02:10:19;;;;;;;11.90;11.40;;;18.90;99.90;;;;;;4920070;29;20460;-84
2023/07/18 02:12:47;;;;;;;11.40;11.00;;;18.80;99.90;;;;;;4918916;29;21100;-81
2023/07/18 02:15:16;;;;;;;11.10;10.70;;;18.80;99.90;;;;;;4918668;29;20465;-81
2023/07/18 02:17:45;;;;;;;11.37;10.83;;;18.80;99.90;;;;;;4924992;29;20964;-80
2023/07/18 02:20:14;;;;;;;11.13;10.73;;;18.80;99.90;;;;;;4925617;29;20471;-79
2023/07/18 02:22:44;;;;;;;11.20;10.80;;;18.80;99.90;;;;;;4924420;29;20974;-81
2023/07/18 02:25:17;;;;;;;11.90;11.40;;;18.70;99.90;;;;;;4919810;29;20465;-82
2023/07/18 02:27:45;;;;;;;10.93;10.53;;;18.70;99.90;;;;;;4919203;29;20521;-79
2023/07/18 02:30:14;;;;;;;10.97;10.67;;;18.70;99.90;;;;;;4922342;29;21037;-82
2023/07/18 02:32:44;;;;;;;11.63;11.13;;;18.60;99.90;;;;;;4925842;29;20549;-82
2023/07/18 02:35:15;;;;;;;11.70;11.30;;;18.50;99.90;;;;;;4925676;29;20460;-81
2023/07/18 02:37:43;;;;;;;11.97;11.57;;;18.60;99.90;;;;;;4925584;29;20476;-80
2023/07/18 02:40:12;;;;;;;11.43;11.03;;;18.50;99.90;;;;;;4924576;29;20533;-79
2023/07/18 02:42:42;;;;;;;11.33;10.87;;;18.50;99.90;;;;;;4924517;29;20500;-79
2023/07/18 02:45:10;;;;;;;11.07;10.77;;;18.50;99.90;;;;;;4924122;29;20456;-80
2023/07/18 02:47:39;;;;;;;11.87;11.40;;;18.50;99.90;;;;;;4920797;29;20885;-80
2023/07/18 02:50:08;;;;;;;11.90;11.33;;;18.40;99.90;;;;;;4923897;29;20448;-82
2023/07/18 02:52:36;;;;;;;10.80;10.40;;;18.40;99.90;;;;;;4920377;29;20455;-82
2023/07/18 02:55:05;;;;;;;10.60;10.30;;;18.50;99.90;;;;;;4921291;29;20563;-79
2023/07/18 02:57:34;;;;;;;10.97;10.47;;;18.50;99.90;;;;;;4922745;29;20488;-82
2023/07/18 03:00:11;;;;;;;11.47;10.83;;;18.50;99.90;;;;;;4922860;29;20461;-80
2023/07/18 03:02:39;;;;;;;11.13;10.73;;;18.40;99.90;;;;;;4923013;29;20993;-80
2023/07/18 03:05:08;;;;;;;11.20;10.80;;;18.40;99.90;;;;;;4917774;29;20489;-81
2023/07/18 03:07:36;;;;;;;11.20;10.80;;;18.30;99.90;;;;;;4915442;29;21044;-79
2023/07/18 03:10:06;;;;;;;11.23;10.77;;;18.30;99.90;;;;;;4918539;29;20452;-77
2023/07/18 03:12:34;;;;;;;11.60;11.03;;;18.20;99.90;;;;;;4923257;29;20476;-82
2023/07/18 03:15:04;;;;;;;11.33;11.00;;;18.20;99.90;;;;;;4924887;29;20489;-83
2023/07/18 03:17:32;;;;;;;12.07;11.60;;;18.20;99.90;;;;;;4918940;29;20705;-79
2023/07/18 03:20:01;;;;;;;10.83;10.53;;;18.10;99.90;;;;;;4924569;29;20473;-80
2023/07/18 03:22:29;;;;;;;10.80;10.40;;;18.10;99.90;;;;;;4920521;29;20453;-79
2023/07/18 03:25:04;;;;;;;10.10;9.80;;;18.10;99.90;;;;;;4919852;29;21025;-81
2023/07/18 03:27:32;;;;;;;10.23;9.77;;;17.90;99.90;;;;;;4919470;29;20520;-81
2023/07/18 03:30:00;;;;;;;10.90;10.60;;;18.00;99.90;;;;;;4919788;29;20465;-82
2023/07/18 03:32:30;;;;;;;11.03;10.70;;;18.00;99.90;;;;;;4919523;29;20536;-83
2023/07/18 03:34:58;;;;;;;11.53;11.07;;;18.00;99.90;;;;;;4922348;29;20492;-80
2023/07/18 03:37:26;;;;;;;10.70;10.30;;;17.90;99.90;;;;;;4919735;29;20477;-80
2023/07/18 03:39:55;;;;;;;10.60;10.10;;;17.90;99.90;;;;;;4935713;28;20458;-80
2023/07/18 03:42:23;;;;;;;10.50;10.20;;;17.90;99.90;;;;;;4917631;29;20465;-82
2023/07/18 03:44:53;;;;;;;10.83;10.33;;;17.90;99.90;;;;;;4915184;29;20544;-79
2023/07/18 03:47:21;;;;;;;11.23;10.73;;;17.90;99.90;;;;;;4918967;29;20481;-80
2023/07/18 03:49:51;;;;;;;10.77;10.47;;;18.00;99.90;;;;;;4919596;29;20489;-79
2023/07/18 03:52:19;;;;;;;11.03;10.63;;;18.00;99.90;;;;;;4918001;29;21014;-81
2023/07/18 03:54:47;;;;;;;10.83;10.27;;;17.90;99.90;;;;;;4919015;29;21031;-80
2023/07/18 03:57:16;;;;;;;10.90;10.60;;;17.80;99.90;;;;;;4919978;29;20476;-80
2023/07/18 03:59:44;;;;;;;11.10;10.47;;;17.80;99.90;;;;;;4921095;29;20909;-76
2023/07/18 04:02:14;;;;;;;10.63;10.20;;;17.80;99.90;;;;;;4912597;29;22735;-80
2023/07/18 04:04:44;;;;;;;11.40;10.90;;;17.80;99.90;;;;;;4920462;29;20468;-82
2023/07/18 04:07:13;;;;;;;11.10;10.60;;;17.80;99.90;;;;;;4916718;29;20488;-79
2023/07/18 04:09:42;;;;;;;10.93;10.57;;;17.80;99.90;;;;;;4916395;29;20925;-82
2023/07/18 04:12:10;;;;;;;12.10;11.50;;;17.80;99.90;;;;;;4919079;29;20576;-78
2023/07/18 04:14:38;;;;;;;11.60;11.20;;;17.90;99.90;;;;;;4921100;29;20517;-80
2023/07/18 04:17:07;;;;;;;11.43;10.93;;;18.00;99.90;;;;;;4922476;29;20495;-81
2023/07/18 04:19:35;;;;;;;11.13;10.73;;;18.00;99.90;;;;;;4923025;29;20461;-80
2023/07/18 04:22:04;;;;;;;11.47;11.07;;;18.00;99.90;;;;;;4918487;29;20465;-79
2023/07/18 04:24:35;;;;;;;11.57;11.27;;;17.90;99.90;;;;;;4917778;29;20458;-79
2023/07/18 04:27:03;;;;;;;12.50;11.80;;;17.90;99.90;;;;;;4921342;29;20535;-80
2023/07/18 04:29:31;;;;;;;12.27;11.77;;;17.90;99.90;;;;;;4923831;29;20548;-81
2023/07/18 04:31:59;;;;;;;12.30;11.80;;;17.80;99.90;;;;;;4924996;29;20563;-83
2023/07/18 04:34:27;;;;;;;12.03;11.63;;;17.80;99.90;;;;;;4918858;29;21028;-78
2023/07/18 04:36:56;;;;;;;11.60;11.20;;;17.80;99.90;;;;;;4921097;29;20496;-77
2023/07/18 04:39:24;;;;;;;11.70;11.20;;;17.60;99.90;;;;;;4918384;29;20838;-79
2023/07/18 04:41:53;;;;;;;11.93;11.47;;;17.60;99.90;;;;;;4918767;29;20473;-77
2023/07/18 04:44:23;;;;;;;12.10;11.63;;;17.50;99.90;;;;;;4917893;29;20460;-78
2023/07/18 04:46:52;;;;;;;11.50;11.10;;;17.60;99.90;;;;;;4915005;29;20221;-79
2023/07/18 04:49:22;;;;;;;12.37;11.80;;;17.70;99.90;;;;;;4915665;29;20473;-76
2023/07/18 04:51:51;;;;;;;11.43;11.03;;;17.80;99.90;;;;;;4922634;29;20461;-77
2023/07/18 04:54:19;;;;;;;12.00;11.50;;;17.90;99.90;;;;;;4922213;29;21022;-78
2023/07/18 04:56:47;;;;;;;12.23;11.80;;;17.90;99.90;;;;;;4919199;29;20568;-78
2023/07/18 04:59:17;;;;;;;11.70;11.30;;;18.00;99.90;;;;;;4918181;29;20464;-78
2023/07/18 05:01:45;;;;;;;13.23;12.50;;;18.00;99.90;;;;;;4917498;29;20484;-78
2023/07/18 05:04:13;;;;;;;13.20;12.60;;;18.00;99.90;;;;;;4916802;29;20453;-77
2023/07/18 05:06:41;;;;;;;13.07;12.50;;;18.00;99.90;;;;;;4897773;29;20511;-77
2023/07/18 05:09:09;;;;;;;14.80;14.00;;;18.00;99.90;;;;;;4912629;29;20473;-78
2023/07/18 05:11:37;;;;;;;14.83;14.20;;;18.10;99.90;;;;;;4912172;29;20982;-79
2023/07/18 05:14:05;;;;;;;14.07;13.27;;;18.10;99.90;;;;;;4911684;29;20498;-78
2023/07/18 05:16:35;;;;;;;13.40;12.90;;;18.10;99.90;;;;;;4920030;29;20840;-79
2023/07/18 05:19:03;;;;;;;13.73;13.03;;;18.20;99.90;;;;;;4914832;29;20557;-77
2023/07/18 05:21:32;;;;;;;13.80;13.17;;;18.20;99.90;;;;;;4916071;29;20978;-79
2023/07/18 05:24:00;;;;;;;14.67;14.00;;;18.30;99.90;;;;;;4912026;29;20984;-78
2023/07/18 05:26:29;;;;;;;13.87;13.17;;;18.40;99.90;;;;;;4918501;29;20458;-77
2023/07/18 05:28:57;;;;;;;13.17;12.53;;;18.40;99.90;;;;;;4912480;29;20552;-80
2023/07/18 05:31:25;;;;;;;12.93;12.43;;;18.30;99.90;;;;;;4914873;29;20461;-79
2023/07/18 05:33:55;;;;;;;12.93;12.43;;;18.50;99.90;;;;;;4916650;29;20903;-79
2023/07/18 05:36:23;;;;;;;12.87;12.27;;;18.40;99.90;;;;;;4916660;29;20987;-78
2023/07/18 05:38:51;;;;;;;12.60;12.00;;;18.40;99.90;;;;;;4918259;29;21002;-82
2023/07/18 05:41:19;;;;;;;13.27;12.77;;;18.40;99.90;;;;;;4918363;29;20469;-83
2023/07/18 05:43:48;;;;;;;12.70;12.20;;;18.50;99.90;;;;;;4920252;29;20968;-84
2023/07/18 05:46:17;;;;;;;13.50;12.50;;;18.50;99.90;;;;;;4916654;29;20495;-84
2023/07/18 05:48:45;;;;;;;12.63;12.13;;;18.60;99.90;;;;;;4920325;29;20548;-84
2023/07/18 05:51:14;;;;;;;13.10;12.40;;;18.60;99.90;;;;;;4920394;29;20560;-83
2023/07/18 05:53:43;;;;;;;13.10;12.60;;;18.60;99.90;;;;;;4920456;29;20484;-82
2023/07/18 05:56:11;;;;;;;13.63;12.90;;;18.70;99.90;;;;;;4918989;29;21365;-82
2023/07/18 05:58:39;;;;;;;13.53;12.80;;;18.80;99.90;;;;;;4915838;29;20488;-81
2023/07/18 06:01:11;;;;;;;14.17;13.47;;;18.90;99.90;;;;;;4920089;29;20816;-83
2023/07/18 06:03:39;;;;;;;13.57;12.80;;;19.00;99.90;;;;;;4923105;29;20464;-82
2023/07/18 06:06:07;;;;;;;13.53;12.80;;;19.10;99.90;;;;;;4922220;29;20517;-81
2023/07/18 06:08:37;;;;;;;13.90;12.93;;;19.10;99.90;;;;;;4927285;29;20476;-82
2023/07/18 06:11:05;;;;;;;12.97;12.37;;;19.20;99.90;;;;;;4923004;29;20481;-81
2023/07/18 06:13:34;;;;;;;13.43;12.90;;;19.20;99.90;;;;;;4925042;29;20473;-84
2023/07/18 06:16:02;;;;;;;13.47;12.97;;;19.30;99.90;;;;;;4924673;29;20769;-83
2023/07/18 06:18:30;;;;;;;13.83;13.33;;;19.50;99.90;;;;;;4922310;29;20897;-83
2023/07/18 06:21:00;;;;;;;13.70;13.03;;;19.60;99.90;;;;;;4922747;29;20473;-83
2023/07/18 06:23:28;;;;;;;13.17;12.50;;;19.60;99.90;;;;;;4922311;28;20467;-84
2023/07/18 06:25:58;;;;;;;12.23;11.80;;;19.70;99.90;;;;;;4926219;29;20454;-83
2023/07/18 06:28:59;;;;;;;13.20;12.43;;;19.70;99.90;;;;;;4922727;29;20481;-84
2023/07/18 06:31:33;;;;;;;12.20;11.80;;;19.80;99.90;;;;;;4919904;29;20457;-84
2023/07/18 06:34:01;;;;;;;13.50;12.70;;;19.80;99.90;;;;;;4922590;29;20473;-83
2023/07/18 06:36:29;;;;;;;12.67;12.20;;;19.80;99.90;;;;;;4921786;29;20518;-86
2023/07/18 06:38:57;;;;;;;12.90;12.33;;;20.00;99.90;;;;;;4924858;29;20833;-85
2023/07/18 06:41:27;;;;;;;13.00;12.50;;;19.90;99.90;;;;;;4926039;29;20512;-84
2023/07/18 06:43:55;;;;;;;12.90;12.40;;;20.10;99.90;;;;;;4923365;29;20461;-85
2023/07/18 06:46:24;;;;;;;12.70;12.20;;;20.10;99.90;;;;;;4920815;29;20456;-85
2023/07/18 06:48:52;;;;;;;11.90;11.53;;;20.20;99.90;;;;;;4923879;29;20464;-83
2023/07/18 06:51:21;;;;;;;12.60;12.20;;;20.40;99.90;;;;;;4924154;29;20553;-84
2023/07/18 06:53:49;;;;;;;12.95;12.40;;;20.50;99.90;;;;;;4923130;29;20941;-82
2023/07/18 06:56:29;;;;;;;12.67;12.27;;;20.50;99.90;;;;;;4922048;29;20305;-85
2023/07/18 06:59:04;;;;;;;12.80;12.40;;;20.80;99.90;;;;;;4923584;29;20479;-84
2023/07/18 07:01:33;;;;;;;13.23;12.63;;;20.70;99.90;;;;;;4919330;29;20464;-84
2023/07/18 07:04:02;;;;;;;13.07;12.23;;;20.80;99.90;;;;;;4921316;29;20453;-84
2023/07/18 07:06:32;;;;;;;12.10;11.70;;;20.80;99.90;;;;;;4921649;29;20489;-80
2023/07/18 07:09:00;;;;;;;12.50;12.00;;;20.80;99.90;;;;;;4925705;29;21117;-83
2023/07/18 07:11:30;;;;;;;12.90;12.60;;;20.80;99.90;;;;;;4924615;29;20517;-83
2023/07/18 07:14:11;;;;;;;11.87;11.47;;;20.90;99.90;;;;;;4925893;29;20463;-84
2023/07/18 07:16:40;;;;;;;12.13;11.80;;;20.90;99.90;;;;;;4925267;29;20574;-84
2023/07/18 07:19:08;;;;;;;12.20;11.90;;;21.00;99.90;;;;;;4925240;29;20479;-82
2023/07/18 07:21:36;;;;;;;12.10;11.80;;;21.00;99.90;;;;;;4930511;29;20457;-83
2023/07/18 07:24:05;;;;;;;12.30;11.70;;;21.00;99.90;;;;;;4925711;29;20522;-81
2023/07/18 07:26:37;;;;;;;12.53;12.13;;;21.10;99.90;;;;;;4925915;29;20823;-83
2023/07/18 07:29:07;;;;;;;11.93;11.60;;;21.30;99.90;;;;;;4924863;29;20477;-83
2023/07/18 07:31:37;;;;;;;12.53;12.13;;;21.20;99.90;;;;;;4927248;29;20541;-82
2023/07/18 07:34:31;;;;;;;11.90;11.50;;;21.30;99.90;;;;;;4925020;29;21152;-84
2023/07/18 07:37:02;;;;;;;12.30;11.80;;;21.40;99.90;;;;;;4923372;29;21077;-83
2023/07/18 07:39:31;;;;;;;11.83;11.53;;;21.40;99.90;;;;;;4926441;29;20550;-83
2023/07/18 07:42:01;;;;;;;12.03;11.63;;;21.40;99.90;;;;;;4926336;29;20500;-84
2023/07/18 07:44:29;;;;;;;12.33;11.90;;;21.50;99.90;;;;;;4924909;29;20489;-83
2023/07/18 07:50:01;;;;;;;11.60;11.20;;;21.50;99.90;;;;;;4927919;28;20484;-83
2023/07/18 07:52:36;;;;;;;12.20;11.63;;;21.60;99.90;;;;;;4923670;29;20540;-82
2023/07/18 07:55:18;;;;;;;11.73;11.33;;;21.60;99.90;;;;;;4925076;29;20480;-84
2023/07/18 08:02:09;;;;;;;12.33;12.03;;;21.70;99.90;;;;;;4925256;29;20859;-84
2023/07/18 08:04:39;;;;;;;12.40;11.90;;;21.80;99.90;;;;;;4924040;29;20460;-83
2023/07/18 08:07:20;;;;;;;12.30;11.97;;;21.90;99.90;;;;;;4923808;29;20504;-83
2023/07/18 08:09:55;;;;;;;13.43;12.93;;;21.90;99.90;;;;;;4923258;29;21033;-83
2023/07/18 08:12:23;;;;;;;12.90;12.40;;;22.00;99.90;;;;;;4921450;29;20455;-83
2023/07/18 08:14:51;;;;;;;12.73;12.33;;;22.00;99.90;;;;;;4923149;29;20471;-85
2023/07/18 08:17:21;;;;;;;13.13;12.53;;;22.00;99.90;;;;;;4924676;29;20583;-83
2023/07/18 08:19:49;;;;;;;12.40;12.00;;;22.10;99.90;;;;;;4922579;29;20500;-80
2023/07/18 08:22:17;;;;;;;12.97;12.20;;;22.20;99.90;;;;;;4924665;29;20461;-84
2023/07/18 08:24:46;;;;;;;12.80;12.30;;;22.20;99.90;;;;;;4926454;29;20539;-83
2023/07/18 08:27:56;;;;;;;12.87;12.20;;;22.30;99.90;;;;;;4925282;29;20568;-82
2023/07/18 08:30:24;;;;;;;12.60;12.20;;;22.30;99.90;;;;;;4920046;29;20477;-81
2023/07/18 08:32:54;;;;;;;12.17;11.87;;;22.30;99.90;;;;;;4924987;29;20448;-85
2023/07/18 08:35:23;;;;;;;12.50;12.10;;;22.30;99.90;;;;;;4922496;29;20557;-84
2023/07/18 08:37:51;;;;;;;12.43;12.07;;;22.30;99.90;;;;;;4923821;29;20493;-83
2023/07/18 08:40:20;;;;;;;12.10;11.80;;;22.40;99.90;;;;;;4924168;29;20958;-84
2023/07/18 08:42:52;;;;;;;12.90;12.50;;;22.40;99.90;;;;;;4923969;29;20521;-84
2023/07/18 08:50:02;;;;;;;;;;;;;;;;;;;;;
2023/07/18 08:53:23;;;;;;;13.27;12.47;;;22.50;99.90;;;;;;4923587;29;20998;-83
2023/07/18 08:55:51;;;;;;;13.70;13.20;;;22.60;99.90;;;;;;4922708;29;21197;-86
2023/07/18 08:58:36;;;;;;;13.30;12.70;;;22.60;99.90;;;;;;5238329;23;20500;-84
2023/07/18 09:05:33;;;;;;;13.23;12.73;;;22.60;99.90;;;;;;4925881;29;20439;-83
2023/07/18 09:08:03;;;;;;;13.67;13.17;;;22.80;99.90;;;;;;4923089;29;20461;-82
2023/07/18 09:10:33;;;;;;;13.43;12.93;;;22.90;99.90;;;;;;4923506;29;21261;-84
2023/07/18 09:13:03;;;;;;;14.20;13.70;;;22.80;99.90;;;;;;4918388;29;20472;-85
2023/07/18 09:15:34;;;;;;;13.90;13.40;;;22.80;99.90;;;;;;4920423;29;20452;-83
2023/07/18 09:18:04;;;;;;;13.83;13.30;;;22.80;99.90;;;;;;4922591;29;20472;-83
2023/07/18 09:20:34;;;;;;;13.37;12.97;;;22.90;99.90;;;;;;4922116;29;20537;-84
2023/07/18 09:23:04;;;;;;;14.40;13.90;;;22.90;99.90;;;;;;4921687;29;20469;-83
2023/07/18 09:25:39;;;;;;;14.40;13.90;;;22.90;99.90;;;;;;4920433;29;20449;-83
2023/07/18 09:28:11;;;;;;;15.23;14.53;;;22.90;99.90;;;;;;4920854;29;20516;-82
2023/07/18 09:30:40;;;;;;;14.30;13.80;;;23.00;99.90;;;;;;4919690;29;20464;-84
2023/07/18 09:33:09;;;;;;;14.20;13.80;;;23.10;99.90;;;;;;4921310;29;20498;-83
2023/07/18 09:35:40;;;;;;;13.97;13.37;;;23.10;99.90;;;;;;4923823;29;20465;-82
2023/07/18 09:38:10;;;;;;;14.07;13.47;;;23.10;99.90;;;;;;4919419;29;21173;-82
2023/07/18 09:40:38;;;;;;;14.03;13.63;;;23.20;99.90;;;;;;4923596;29;20548;-82
2023/07/18 09:43:07;;;;;;;13.67;13.17;;;23.30;99.90;;;;;;4913712;28;20469;-81
2023/07/18 09:45:36;;;;;;;14.73;14.23;;;23.40;99.90;;;;;;4916685;29;20468;-83
2023/07/18 09:48:07;;;;;;;14.83;14.40;;;23.30;99.90;;;;;;4917579;29;21136;-83
2023/07/18 09:50:43;;;;;;;14.73;14.23;;;23.30;99.90;;;;;;4919220;29;20476;-83
2023/07/18 09:53:13;;;;;;;15.27;14.57;;;23.40;99.90;;;;;;4920823;29;20535;-82
2023/07/18 09:55:43;;;;;;;14.90;14.30;;;23.40;99.90;;;;;;4921063;29;20458;-83
2023/07/18 09:58:12;;;;;;;14.37;13.77;;;23.50;99.90;;;;;;4921365;29;20485;-83
2023/07/18 10:00:43;;;;;;;14.00;13.50;;;23.50;99.90;;;;;;4916957;28;20465;-82
2023/07/18 10:03:18;;;;;;;15.10;14.37;;;23.60;99.90;;;;;;4918772;29;20461;-82
2023/07/18 10:05:48;;;;;;;14.37;13.67;;;23.60;99.90;;;;;;4920495;29;20869;-81
2023/07/18 10:08:17;;;;;;;15.60;14.90;;;23.60;99.90;;;;;;4914986;29;20584;-83
2023/07/18 10:11:02;;;;;;;14.40;13.70;;;23.50;99.90;;;;;;4930191;28;20523;-83
2023/07/18 10:13:31;;;;;;;14.10;13.60;;;23.60;99.90;;;;;;4919027;28;20970;-82
2023/07/18 10:16:20;;;;;;;14.67;14.10;;;23.50;99.90;;;;;;4921255;29;20750;-81
2023/07/18 10:18:50;;;;;;;14.20;13.70;;;23.50;99.90;;;;;;4914124;29;20943;-84
2023/07/18 10:21:31;;;;;;;14.73;14.23;;;23.50;99.90;;;;;;4920301;29;20465;-83
2023/07/18 10:24:19;;;;;;;14.63;14.13;;;23.40;99.90;;;;;;4920239;29;20468;-83
2023/07/18 10:26:49;;;;;;;13.77;13.23;;;23.40;99.90;;;;;;4921482;29;20988;-85
2023/07/18 10:29:17;;;;;;;14.40;13.50;;;23.50;99.90;;;;;;4921663;29;20475;-83
2023/07/18 10:31:46;;;;;;;13.70;13.30;;;23.50;99.90;;;;;;4920333;29;20917;-83
2023/07/18 10:34:16;;;;;;;13.90;13.40;;;23.50;99.90;;;;;;4922390;29;20467;-84
2023/07/18 10:36:57;;;;;;;14.53;13.93;;;23.50;99.90;;;;;;4921041;29;20467;-85
2023/07/18 10:39:39;;;;;;;14.23;13.70;;;23.50;99.90;;;;;;4925234;29;20887;-84
2023/07/18 10:42:09;;;;;;;14.30;13.70;;;23.50;99.90;;;;;;4921789;29;20476;-83
2023/07/18 10:44:38;;;;;;;14.27;13.60;;;23.60;99.90;;;;;;4922692;29;20453;-84
2023/07/18 10:47:13;;;;;;;13.97;13.40;;;23.60;99.90;;;;;;4919604;29;20498;-84
2023/07/18 10:49:42;;;;;;;14.20;13.70;;;23.70;99.90;;;;;;4922217;28;20466;-84
2023/07/18 10:52:12;;;;;;;14.50;14.00;;;23.70;99.90;;;;;;4924235;29;21287;-84
2023/07/18 10:54:45;;;;;;;15.23;14.00;;;23.80;99.90;;;;;;4919336;29;20461;-84
2023/07/18 10:57:15;;;;;;;14.60;13.70;;;23.80;99.90;;;;;;4921121;29;20481;-84
2023/07/18 10:59:44;;;;;;;13.83;13.33;;;23.90;99.90;;;;;;4926048;28;20483;-84
2023/07/18 11:02:13;;;;;;;15.20;14.60;;;23.80;99.90;;;;;;4925060;29;20468;-84
2023/07/18 11:10:08;;;;;;;13.77;13.33;;;23.80;99.90;;;;;;4922815;29;20826;-83
2023/07/18 11:13:21;;;;;;;15.03;14.53;;;23.80;99.90;;;;;;4944813;28;20515;-84
2023/07/18 11:16:33;;;;;;;14.53;14.10;;;23.80;99.90;;;;;;4958275;28;20467;-82
2023/07/18 11:53:53;;;;;;;14.87;14.10;;;23.50;99.90;;;;;;4948030;28;20431;-85
2023/07/18 11:56:45;;;;;;;15.33;14.63;;;23.60;99.90;;;;;;4944817;28;20452;-83
2023/07/18 11:59:16;;;;;;;14.80;14.30;;;23.60;99.90;;;;;;4929595;29;20828;-83
2023/07/18 12:02:06;;;;;;;14.80;14.20;;;23.60;99.90;;;;;;4911155;29;22451;-84
2023/07/18 12:04:38;;;;;;;15.37;14.57;;;23.60;99.90;;;;;;4925946;29;20479;-83
2023/07/18 12:07:07;;;;;;;15.03;14.17;;;23.60;99.90;;;;;;4926551;29;20472;-83
2023/07/18 12:09:39;;;;;;;15.43;14.70;;;23.60;99.90;;;;;;4928376;29;20438;-84
2023/07/18 12:12:08;;;;;;;15.37;14.87;;;23.70;99.90;;;;;;4928401;29;20468;-84
2023/07/18 12:14:46;;;;;;;15.73;14.90;;;23.60;99.90;;;;;;4929808;29;20932;-84
2023/07/18 12:17:24;;;;;;;15.50;14.70;;;23.70;99.90;;;;;;4921796;29;20560;-84
2023/07/18 12:20:15;;;;;;;15.63;15.03;;;23.70;99.90;;;;;;4920989;29;20687;-85
2023/07/18 12:22:46;;;;;;;16.30;15.30;;;23.70;99.90;;;;;;4924556;29;20488;-85
2023/07/18 12:25:17;;;;;;;15.47;14.97;;;23.80;99.90;;;;;;4921834;29;21033;-83
2023/07/18 12:27:45;;;;;;;15.17;14.57;;;23.80;99.90;;;;;;4922500;29;20478;-82
2023/07/18 12:30:13;;;;;;;16.57;15.87;;;23.80;99.90;;;;;;4919590;29;20465;-85
2023/07/18 12:32:41;;;;;;;15.80;15.10;;;23.80;99.90;;;;;;4926061;29;20464;-83
2023/07/18 12:35:11;;;;;;;15.70;15.00;;;23.90;99.90;;;;;;4921988;29;20501;-84
2023/07/18 12:37:39;;;;;;;15.40;14.80;;;24.00;99.90;;;;;;4903803;29;20560;-83
2023/07/18 12:40:08;;;;;;;15.57;14.87;;;24.00;99.90;;;;;;4926500;29;20465;-83
2023/07/18 12:42:38;;;;;;;15.00;14.40;;;24.00;99.90;;;;;;4924454;29;20461;-83
2023/07/18 12:45:07;;;;;;;15.43;14.90;;;24.00;99.90;;;;;;4927445;29;20536;-81
2023/07/18 12:47:36;;;;;;;14.83;14.13;;;24.10;99.90;;;;;;4924493;29;20491;-83
2023/07/18 12:50:06;;;;;;;15.50;15.00;;;24.20;99.90;;;;;;4927465;28;20484;-84
2023/07/18 12:52:34;;;;;;;16.23;15.43;;;24.20;99.90;;;;;;4924437;29;20461;-85
2023/07/18 12:55:06;;;;;;;15.63;14.93;;;24.20;99.90;;;;;;4928088;29;20468;-83
2023/07/18 12:57:34;;;;;;;15.30;14.80;;;24.20;99.90;;;;;;4929946;29;20533;-84
2023/07/18 13:00:54;;;;;;;16.20;15.60;;;24.20;99.90;;;;;;4929418;29;20477;-82
2023/07/18 13:03:27;;;;;;;15.27;14.67;;;24.30;99.90;;;;;;4920630;29;20500;-84
2023/07/18 13:06:00;;;;;;;15.50;14.80;;;24.20;99.90;;;;;;4928182;29;20444;-84
2023/07/18 13:08:29;;;;;;;15.13;14.60;;;24.30;99.90;;;;;;4927703;29;20476;-84
2023/07/18 13:10:58;;;;;;;14.90;14.40;;;24.20;99.90;;;;;;4927811;29;20754;-83
2023/07/18 13:13:35;;;;;;;15.33;14.73;;;24.20;99.90;;;;;;4924655;29;20464;-84
2023/07/18 13:16:11;;;;;;;15.60;15.00;;;24.20;99.90;;;;;;4928006;29;20457;-83
2023/07/18 13:18:40;;;;;;;15.63;14.70;;;24.20;99.90;;;;;;4926189;29;20580;-84
2023/07/18 13:21:09;;;;;;;15.43;14.83;;;24.20;99.90;;;;;;4929215;29;20835;-84
2023/07/18 13:23:37;;;;;;;14.97;14.27;;;24.20;99.90;;;;;;4929494;29;20464;-83
2023/07/18 13:26:16;;;;;;;15.87;15.10;;;24.20;99.90;;;;;;4929161;29;20819;-84
2023/07/18 13:28:48;;;;;;;15.90;14.70;;;24.20;99.90;;;;;;4925408;29;20610;-83
2023/07/18 13:31:16;;;;;;;15.23;14.53;;;24.30;99.90;;;;;;4924477;29;20961;-83
2023/07/18 13:33:48;;;;;;;15.40;14.53;;;24.30;99.90;;;;;;4929327;29;20457;-82
2023/07/18 13:42:41;;;;;;;15.37;14.77;;;24.50;99.90;;;;;;4862986;29;20472;-81
2023/07/18 13:45:27;;;;;;;15.33;14.63;;;24.50;99.90;;;;;;4920126;29;20468;-84
2023/07/18 13:48:45;;;;;;;14.87;14.13;;;24.50;99.90;;;;;;4920305;29;21506;-82
2023/07/18 13:51:57;;;;;;;14.97;14.47;;;24.50;99.90;;;;;;4919478;29;20886;-83